Time;durP1;ratioP1;P1;durP2;ratioP2;P2;SDS_P1;SDS_P2;PMS_P1;PMS_P2;Temp;Humidity;BMP_temperature;BMP_pressure;BME280_temperature;BME280_humidity;BME280_pressure;Samples;Min_cycle;Max_cycle;Signal;HPM_P1;HPM_P2
2022/05/22 19:31:54;;;;;;;10.63;8.15;;;11.10;99.90;;;;;;5123754;27;20432;-92
2022/05/22 19:34:21;;;;;;;9.30;8.40;;;10.70;99.90;;;;;;5090964;28;20020;-95
2022/05/22 19:36:49;;;;;;;10.68;7.63;;;10.80;99.90;;;;;;5091810;28;20020;-94
2022/05/22 19:39:15;;;;;;;9.02;8.15;;;10.80;99.90;;;;;;5090628;28;20054;-95
2022/05/22 19:44:40;;;;;;;9.38;7.90;;;10.80;99.90;;;;;;5096173;28;20031;-96
2022/05/22 19:47:12;;;;;;;8.52;7.53;;;10.80;99.90;;;;;;5093604;28;20429;-95
2022/05/22 19:49:38;;;;;;;10.82;7.10;;;10.90;99.90;;;;;;5090725;28;20028;-96
2022/05/22 19:52:07;;;;;;;10.20;6.10;;;10.90;99.90;;;;;;5091060;28;20025;-96
2022/05/22 20:00:14;;;;;;;7.72;6.60;;;11.00;99.90;;;;;;5092784;28;20051;-96
2022/05/22 20:02:41;;;;;;;13.70;7.70;;;11.00;99.90;;;;;;5093155;28;20115;-94
2022/05/22 20:05:09;;;;;;;9.07;7.07;;;11.00;99.90;;;;;;5092509;28;20024;-94
2022/05/22 20:07:37;;;;;;;7.18;6.47;;;11.00;99.90;;;;;;5091696;28;20089;-96
2022/05/22 20:10:05;;;;;;;10.38;7.15;;;11.00;99.90;;;;;;5095701;28;20067;-96
2022/05/22 20:12:31;;;;;;;8.13;6.30;;;11.00;99.90;;;;;;5095713;28;20024;-96
2022/05/22 20:15:05;;;;;;;7.75;6.05;;;11.00;99.90;;;;;;5094685;28;20080;-96
2022/05/22 20:17:34;;;;;;;6.57;5.97;;;11.00;99.90;;;;;;5120054;22;20037;-96
2022/05/22 20:20:02;;;;;;;8.65;5.88;;;11.10;99.90;;;;;;5039654;28;20029;-93
2022/05/22 20:22:30;;;;;;;6.78;5.97;;;11.10;99.90;;;;;;5039264;28;20032;-96
2022/05/22 20:24:56;;;;;;;9.65;6.15;;;11.00;99.90;;;;;;5036379;28;20021;-95
2022/05/22 20:27:22;;;;;;;7.80;6.72;;;11.00;99.90;;;;;;5034004;28;20072;-94
2022/05/22 20:29:48;;;;;;;9.80;7.05;;;11.10;99.90;;;;;;5032976;28;20383;-94
2022/05/22 20:32:13;;;;;;;8.60;7.13;;;11.10;99.90;;;;;;5033135;28;20034;-96
2022/05/22 20:34:39;;;;;;;7.53;6.47;;;11.10;99.90;;;;;;5032982;28;20028;-94
2022/05/22 20:37:05;;;;;;;6.97;6.28;;;11.10;99.90;;;;;;5033427;28;20022;-95
2022/05/22 20:39:31;;;;;;;7.72;6.50;;;11.10;99.90;;;;;;5033053;28;20025;-95
2022/05/22 20:42:01;;;;;;;6.90;6.20;;;11.10;99.90;;;;;;5025904;28;20270;-94
2022/05/22 20:44:38;;;;;;;7.32;6.28;;;11.10;99.90;;;;;;5020395;28;20467;-95
2022/05/22 20:47:07;;;;;;;6.78;6.18;;;11.20;99.90;;;;;;5021246;28;20124;-96
2022/05/22 20:49:33;;;;;;;6.45;5.72;;;11.10;99.90;;;;;;5019431;28;20104;-96
2022/05/22 20:51:59;;;;;;;8.10;5.70;;;11.10;99.90;;;;;;5019432;28;20421;-94
2022/05/22 20:54:25;;;;;;;6.10;5.60;;;11.10;99.90;;;;;;5019396;28;20021;-93
2022/05/22 20:57:00;;;;;;;5.97;5.18;;;11.20;99.90;;;;;;5019186;28;20022;-93
2022/05/22 20:59:38;;;;;;;6.28;5.40;;;11.20;99.90;;;;;;5019980;28;20017;-95
2022/05/22 21:02:11;;;;;;;5.72;5.22;;;11.20;99.90;;;;;;5019768;28;20032;-95
2022/05/22 21:04:40;;;;;;;6.55;5.57;;;11.20;99.90;;;;;;5020690;28;20552;-96
2022/05/22 21:07:14;;;;;;;6.88;5.50;;;11.20;99.90;;;;;;5021690;28;20482;-95
2022/05/22 21:09:40;;;;;;;5.85;5.28;;;11.20;99.90;;;;;;5020917;28;20049;-94
2022/05/22 21:12:06;;;;;;;6.30;5.28;;;11.20;99.90;;;;;;5019052;28;20025;-92
2022/05/22 21:14:31;;;;;;;8.90;5.80;;;11.20;99.90;;;;;;5018787;28;20177;-93
2022/05/22 21:16:57;;;;;;;6.35;5.05;;;11.20;99.90;;;;;;5018912;28;20543;-91
2022/05/22 21:19:23;;;;;;;5.85;4.90;;;11.20;99.90;;;;;;5018467;28;20052;-92
2022/05/22 21:21:50;;;;;;;6.50;5.10;;;11.20;99.90;;;;;;5018613;28;20021;-94
2022/05/22 21:30:31;;;;;;;6.20;5.30;;;11.30;99.90;;;;;;5036496;28;20039;-91
2022/05/22 21:32:56;;;;;;;5.72;4.88;;;11.30;99.90;;;;;;5018799;28;20096;-90
2022/05/22 21:35:22;;;;;;;5.60;5.10;;;11.30;99.90;;;;;;5018703;28;20029;-90
2022/05/22 21:37:48;;;;;;;7.53;5.03;;;11.30;99.90;;;;;;5018550;28;20459;-94
2022/05/22 21:40:13;;;;;;;7.50;5.05;;;11.40;99.90;;;;;;5018324;28;20116;-92
2022/05/22 21:42:43;;;;;;;6.30;5.35;;;11.30;99.90;;;;;;5034945;28;20029;-89
2022/05/22 21:45:10;;;;;;;5.63;4.70;;;11.30;99.90;;;;;;5018177;28;20052;-91
2022/05/22 21:47:36;;;;;;;6.00;5.43;;;11.40;99.90;;;;;;5018001;28;20560;-90
2022/05/22 21:50:03;;;;;;;6.00;4.85;;;11.30;99.90;;;;;;5017939;28;20112;-89
2022/05/22 21:52:29;;;;;;;7.05;5.10;;;11.40;99.90;;;;;;5017839;28;20021;-91
2022/05/22 21:54:55;;;;;;;5.40;4.90;;;11.40;99.90;;;;;;5017487;28;20032;-91
2022/05/22 21:57:24;;;;;;;5.45;4.90;;;11.40;99.90;;;;;;5035820;28;20021;-90
2022/05/22 21:59:53;;;;;;;6.53;5.03;;;11.40;99.90;;;;;;5018118;28;20031;-89
2022/05/22 22:02:21;;;;;;;6.10;5.35;;;11.40;99.90;;;;;;5017933;28;20034;-88
2022/05/22 22:04:47;;;;;;;5.75;5.25;;;11.50;99.90;;;;;;5018036;28;20026;-89
2022/05/22 22:07:13;;;;;;;6.00;5.40;;;11.50;99.90;;;;;;5018116;28;20021;-90
2022/05/22 22:09:39;;;;;;;6.00;5.32;;;11.50;99.90;;;;;;5017880;28;20079;-90
2022/05/22 22:12:05;;;;;;;6.40;5.80;;;11.50;99.90;;;;;;5018090;28;20017;-89
2022/05/22 22:14:31;;;;;;;5.60;5.10;;;11.50;99.90;;;;;;5017603;28;20026;-90
2022/05/22 22:16:57;;;;;;;5.82;5.22;;;11.60;99.90;;;;;;5018698;28;20030;-89
2022/05/22 22:19:24;;;;;;;5.72;4.82;;;11.60;99.90;;;;;;5017453;28;20048;-89
2022/05/22 22:21:50;;;;;;;5.20;4.70;;;11.60;99.90;;;;;;5017634;28;20079;-89
2022/05/22 22:24:21;;;;;;;5.32;4.82;;;11.70;99.90;;;;;;5017621;28;20032;-89
2022/05/22 22:26:48;;;;;;;4.90;4.50;;;11.70;99.90;;;;;;5018150;28;20022;-89
2022/05/22 22:29:20;;;;;;;4.38;3.97;;;11.70;99.90;;;;;;5017551;28;20028;-89
2022/05/22 22:31:46;;;;;;;4.50;4.10;;;11.70;99.90;;;;;;5018221;28;20025;-89
2022/05/22 22:34:12;;;;;;;4.65;3.60;;;11.70;99.90;;;;;;5017482;28;20026;-89
2022/05/22 22:36:38;;;;;;;4.30;3.90;;;11.80;99.90;;;;;;5017574;28;20124;-89
2022/05/22 22:39:05;;;;;;;5.65;3.83;;;11.80;99.90;;;;;;5017680;28;20064;-90
2022/05/22 22:41:32;;;;;;;2.42;2.22;;;11.80;99.90;;;;;;5017257;28;20033;-91
2022/05/22 22:43:59;;;;;;;1.80;1.70;;;11.70;99.90;;;;;;5017406;28;20072;-91
2022/05/22 22:46:26;;;;;;;1.83;1.70;;;11.60;99.90;;;;;;5017197;28;20028;-89
2022/05/22 22:48:52;;;;;;;1.80;1.70;;;11.50;99.90;;;;;;5017160;28;20029;-90
2022/05/22 22:51:18;;;;;;;1.40;1.30;;;11.40;99.90;;;;;;5017199;28;20118;-89
2022/05/22 22:59:17;;;;;;;2.72;2.10;;;11.30;99.90;;;;;;5035227;28;20483;-86
2022/05/22 23:01:44;;;;;;;3.20;2.50;;;11.20;99.90;;;;;;5016957;28;20122;-87
2022/05/22 23:04:11;;;;;;;2.70;2.50;;;11.30;99.90;;;;;;5016708;28;20080;-89
2022/05/22 23:06:37;;;;;;;3.33;3.03;;;11.30;99.90;;;;;;5016960;28;20026;-90
2022/05/22 23:09:03;;;;;;;3.08;2.78;;;11.30;99.90;;;;;;5017038;28;20040;-89
2022/05/22 23:11:29;;;;;;;3.65;2.90;;;11.30;99.90;;;;;;5016903;28;20399;-89
2022/05/22 23:13:55;;;;;;;4.07;3.10;;;11.30;99.90;;;;;;5016946;28;20456;-89
2022/05/22 23:16:27;;;;;;;3.28;2.92;;;11.30;99.90;;;;;;5017021;28;20116;-88
2022/05/22 23:18:53;;;;;;;3.95;3.20;;;11.30;99.90;;;;;;5016694;28;20051;-88
2022/05/22 23:21:19;;;;;;;3.45;3.00;;;11.20;99.90;;;;;;5016739;28;20029;-89
2022/05/22 23:23:44;;;;;;;3.05;2.85;;;11.20;99.90;;;;;;5017174;28;20388;-90
2022/05/22 23:26:13;;;;;;;3.47;3.15;;;11.20;99.90;;;;;;5016962;28;20468;-88
2022/05/22 23:28:42;;;;;;;3.92;3.50;;;11.20;99.90;;;;;;5016714;28;20025;-89
2022/05/22 23:31:09;;;;;;;3.70;3.40;;;11.20;99.90;;;;;;5016704;28;20033;-89
2022/05/22 23:33:34;;;;;;;3.83;3.53;;;11.30;99.90;;;;;;5016507;28;20030;-89
2022/05/22 23:36:00;;;;;;;4.32;3.28;;;11.30;99.90;;;;;;5016679;28;20468;-89
2022/05/22 23:39:14;;;;;;;8.93;3.63;;;11.20;99.90;;;;;;5016869;28;20029;-90
2022/05/22 23:41:15;;;;;;;4.35;3.92;;;11.20;99.90;;;;;;5034206;28;20599;-90
2022/05/22 23:43:40;;;;;;;4.00;3.60;;;11.20;99.90;;;;;;5016746;28;20065;-89
2022/05/22 23:46:06;;;;;;;4.63;3.97;;;11.20;99.90;;;;;;5016681;28;20076;-88
2022/05/22 23:48:32;;;;;;;4.35;3.95;;;11.20;99.90;;;;;;5016641;28;20026;-90
2022/05/22 23:50:57;;;;;;;3.90;3.60;;;11.20;99.90;;;;;;5016663;28;20048;-89
2022/05/22 23:53:25;;;;;;;3.55;3.25;;;11.20;99.90;;;;;;5016624;28;20026;-90
2022/05/22 23:55:50;;;;;;;3.78;3.38;;;11.20;99.90;;;;;;5016638;28;20026;-88
2022/05/22 23:58:16;;;;;;;4.07;3.67;;;11.20;99.90;;;;;;5016442;28;20048;-90
